sensor_id;sensor_type;location;lat;lon;timestamp;P1;durP1;ratioP1;P2;durP2;ratioP2
2257;SDS011;1136;51.574;7.706;2023-03-05T00:01:38;12.07;;;4.57;;
2257;SDS011;1136;51.574;7.706;2023-03-05T00:04:06;6.73;;;3.50;;
2257;SDS011;1136;51.574;7.706;2023-03-05T00:06:36;9.60;;;4.37;;
2257;SDS011;1136;51.574;7.706;2023-03-05T00:09:02;8.20;;;3.97;;
2257;SDS011;1136;51.574;7.706;2023-03-05T00:11:29;9.73;;;4.23;;
2257;SDS011;1136;51.574;7.706;2023-03-05T00:13:58;6.70;;;3.63;;
2257;SDS011;1136;51.574;7.706;2023-03-05T00:16:26;5.23;;;3.67;;
2257;SDS011;1136;51.574;7.706;2023-03-05T00:18:54;5.17;;;2.83;;
2257;SDS011;1136;51.574;7.706;2023-03-05T00:21:32;10.03;;;3.57;;
2257;SDS011;1136;51.574;7.706;2023-03-05T00:24:05;9.00;;;4.67;;
2257;SDS011;1136;51.574;7.706;2023-03-05T00:26:35;9.77;;;3.67;;
2257;SDS011;1136;51.574;7.706;2023-03-05T00:29:02;9.80;;;3.60;;
2257;SDS011;1136;51.574;7.706;2023-03-05T00:31:29;10.47;;;3.40;;
2257;SDS011;1136;51.574;7.706;2023-03-05T00:33:58;10.43;;;4.17;;
2257;SDS011;1136;51.574;7.706;2023-03-05T00:36:26;11.40;;;4.43;;
2257;SDS011;1136;51.574;7.706;2023-03-05T00:38:53;7.13;;;4.10;;
2257;SDS011;1136;51.574;7.706;2023-03-05T00:41:19;4.03;;;3.20;;
2257;SDS011;1136;51.574;7.706;2023-03-05T00:43:46;9.30;;;4.07;;
2257;SDS011;1136;51.574;7.706;2023-03-05T00:46:13;6.17;;;3.90;;
2257;SDS011;1136;51.574;7.706;2023-03-05T00:48:40;10.93;;;4.57;;
2257;SDS011;1136;51.574;7.706;2023-03-05T00:51:07;11.97;;;4.20;;
2257;SDS011;1136;51.574;7.706;2023-03-05T00:53:34;10.40;;;3.80;;
2257;SDS011;1136;51.574;7.706;2023-03-05T00:56:01;8.40;;;3.77;;
2257;SDS011;1136;51.574;7.706;2023-03-05T00:58:27;6.10;;;3.40;;
2257;SDS011;1136;51.574;7.706;2023-03-05T01:00:58;6.20;;;2.80;;
2257;SDS011;1136;51.574;7.706;2023-03-05T01:03:25;8.70;;;2.70;;
2257;SDS011;1136;51.574;7.706;2023-03-05T01:05:52;7.33;;;3.67;;
2257;SDS011;1136;51.574;7.706;2023-03-05T01:08:19;10.27;;;2.43;;
2257;SDS011;1136;51.574;7.706;2023-03-05T01:10:46;10.27;;;3.57;;
2257;SDS011;1136;51.574;7.706;2023-03-05T01:13:12;6.57;;;3.07;;
2257;SDS011;1136;51.574;7.706;2023-03-05T01:15:39;3.53;;;2.93;;
2257;SDS011;1136;51.574;7.706;2023-03-05T01:18:06;14.37;;;4.43;;
2257;SDS011;1136;51.574;7.706;2023-03-05T01:20:32;10.27;;;3.17;;
2257;SDS011;1136;51.574;7.706;2023-03-05T01:22:59;8.73;;;4.17;;
2257;SDS011;1136;51.574;7.706;2023-03-05T01:25:27;14.63;;;3.90;;
2257;SDS011;1136;51.574;7.706;2023-03-05T01:27:53;6.90;;;3.67;;
2257;SDS011;1136;51.574;7.706;2023-03-05T01:30:20;9.20;;;3.97;;
2257;SDS011;1136;51.574;7.706;2023-03-05T01:32:47;9.83;;;3.83;;
2257;SDS011;1136;51.574;7.706;2023-03-05T01:35:18;8.83;;;3.37;;
2257;SDS011;1136;51.574;7.706;2023-03-05T01:37:46;13.30;;;3.80;;
2257;SDS011;1136;51.574;7.706;2023-03-05T01:40:14;5.60;;;4.33;;
2257;SDS011;1136;51.574;7.706;2023-03-05T01:42:46;10.07;;;4.77;;
2257;SDS011;1136;51.574;7.706;2023-03-05T01:45:15;13.10;;;5.23;;
2257;SDS011;1136;51.574;7.706;2023-03-05T01:47:43;16.70;;;4.60;;
2257;SDS011;1136;51.574;7.706;2023-03-05T01:50:12;9.50;;;4.57;;
2257;SDS011;1136;51.574;7.706;2023-03-05T01:52:43;10.90;;;4.13;;
2257;SDS011;1136;51.574;7.706;2023-03-05T01:55:14;8.87;;;3.53;;
2257;SDS011;1136;51.574;7.706;2023-03-05T01:57:53;9.07;;;3.63;;
2257;SDS011;1136;51.574;7.706;2023-03-05T02:00:26;7.27;;;3.80;;
2257;SDS011;1136;51.574;7.706;2023-03-05T02:02:56;13.10;;;4.50;;
2257;SDS011;1136;51.574;7.706;2023-03-05T02:05:30;6.73;;;3.20;;
2257;SDS011;1136;51.574;7.706;2023-03-05T02:07:59;8.07;;;4.90;;
2257;SDS011;1136;51.574;7.706;2023-03-05T02:10:37;15.23;;;5.17;;
2257;SDS011;1136;51.574;7.706;2023-03-05T02:13:11;14.03;;;4.83;;
2257;SDS011;1136;51.574;7.706;2023-03-05T02:15:39;5.47;;;4.37;;
2257;SDS011;1136;51.574;7.706;2023-03-05T02:18:07;12.80;;;6.07;;
2257;SDS011;1136;51.574;7.706;2023-03-05T02:23:13;11.30;;;5.07;;
2257;SDS011;1136;51.574;7.706;2023-03-05T02:25:41;8.97;;;5.40;;
2257;SDS011;1136;51.574;7.706;2023-03-05T02:28:11;13.43;;;7.77;;
2257;SDS011;1136;51.574;7.706;2023-03-05T02:30:41;9.40;;;4.73;;
2257;SDS011;1136;51.574;7.706;2023-03-05T02:33:08;12.30;;;4.37;;
2257;SDS011;1136;51.574;7.706;2023-03-05T02:35:35;10.07;;;5.07;;
2257;SDS011;1136;51.574;7.706;2023-03-05T02:38:02;7.77;;;4.40;;
2257;SDS011;1136;51.574;7.706;2023-03-05T02:40:28;8.70;;;4.47;;
2257;SDS011;1136;51.574;7.706;2023-03-05T02:42:55;14.03;;;3.93;;
2257;SDS011;1136;51.574;7.706;2023-03-05T02:45:22;12.33;;;4.13;;
2257;SDS011;1136;51.574;7.706;2023-03-05T02:47:49;9.23;;;3.47;;
2257;SDS011;1136;51.574;7.706;2023-03-05T02:50:15;5.40;;;3.50;;
2257;SDS011;1136;51.574;7.706;2023-03-05T02:52:42;8.70;;;4.47;;
2257;SDS011;1136;51.574;7.706;2023-03-05T02:55:08;7.80;;;3.53;;
2257;SDS011;1136;51.574;7.706;2023-03-05T02:57:35;7.73;;;3.67;;
2257;SDS011;1136;51.574;7.706;2023-03-05T03:00:03;14.70;;;4.83;;
2257;SDS011;1136;51.574;7.706;2023-03-05T03:02:31;9.73;;;4.43;;
2257;SDS011;1136;51.574;7.706;2023-03-05T03:04:57;6.63;;;4.00;;
2257;SDS011;1136;51.574;7.706;2023-03-05T03:07:24;8.57;;;4.20;;
2257;SDS011;1136;51.574;7.706;2023-03-05T03:09:51;12.13;;;4.90;;
2257;SDS011;1136;51.574;7.706;2023-03-05T03:12:18;10.10;;;4.27;;
2257;SDS011;1136;51.574;7.706;2023-03-05T03:14:44;7.93;;;4.20;;
2257;SDS011;1136;51.574;7.706;2023-03-05T03:17:12;13.83;;;3.93;;
2257;SDS011;1136;51.574;7.706;2023-03-05T03:19:41;10.97;;;4.90;;
2257;SDS011;1136;51.574;7.706;2023-03-05T03:22:08;13.17;;;4.73;;
2257;SDS011;1136;51.574;7.706;2023-03-05T03:24:36;11.00;;;4.57;;
2257;SDS011;1136;51.574;7.706;2023-03-05T03:27:03;10.90;;;5.10;;
2257;SDS011;1136;51.574;7.706;2023-03-05T03:29:30;17.83;;;4.03;;
2257;SDS011;1136;51.574;7.706;2023-03-05T03:31:57;4.93;;;3.50;;
2257;SDS011;1136;51.574;7.706;2023-03-05T03:34:24;7.10;;;3.40;;
2257;SDS011;1136;51.574;7.706;2023-03-05T03:36:51;4.90;;;3.60;;
2257;SDS011;1136;51.574;7.706;2023-03-05T03:39:20;13.87;;;4.50;;
2257;SDS011;1136;51.574;7.706;2023-03-05T03:41:48;7.67;;;3.90;;
2257;SDS011;1136;51.574;7.706;2023-03-05T03:44:17;7.17;;;3.03;;
2257;SDS011;1136;51.574;7.706;2023-03-05T03:46:45;8.10;;;3.70;;
2257;SDS011;1136;51.574;7.706;2023-03-05T03:51:44;5.77;;;3.40;;
2257;SDS011;1136;51.574;7.706;2023-03-05T03:54:12;7.50;;;3.50;;
2257;SDS011;1136;51.574;7.706;2023-03-05T03:56:39;16.67;;;4.20;;
2257;SDS011;1136;51.574;7.706;2023-03-05T03:59:06;9.67;;;3.37;;
2257;SDS011;1136;51.574;7.706;2023-03-05T04:01:33;7.23;;;3.87;;
2257;SDS011;1136;51.574;7.706;2023-03-05T04:04:00;5.80;;;3.23;;
2257;SDS011;1136;51.574;7.706;2023-03-05T04:06:27;11.83;;;4.23;;
2257;SDS011;1136;51.574;7.706;2023-03-05T04:08:53;3.83;;;3.23;;
2257;SDS011;1136;51.574;7.706;2023-03-05T04:11:20;5.20;;;3.50;;
2257;SDS011;1136;51.574;7.706;2023-03-05T04:13:47;5.00;;;3.40;;
2257;SDS011;1136;51.574;7.706;2023-03-05T04:16:14;9.37;;;3.70;;
2257;SDS011;1136;51.574;7.706;2023-03-05T04:18:41;7.67;;;2.73;;
2257;SDS011;1136;51.574;7.706;2023-03-05T04:21:08;6.47;;;3.50;;
2257;SDS011;1136;51.574;7.706;2023-03-05T04:23:35;8.67;;;3.70;;
2257;SDS011;1136;51.574;7.706;2023-03-05T04:26:02;11.70;;;3.90;;
2257;SDS011;1136;51.574;7.706;2023-03-05T04:28:29;9.37;;;3.00;;
2257;SDS011;1136;51.574;7.706;2023-03-05T04:30:56;7.97;;;3.40;;
2257;SDS011;1136;51.574;7.706;2023-03-05T04:33:22;7.53;;;2.70;;
2257;SDS011;1136;51.574;7.706;2023-03-05T04:35:49;13.20;;;3.97;;
2257;SDS011;1136;51.574;7.706;2023-03-05T04:38:16;11.90;;;3.87;;
2257;SDS011;1136;51.574;7.706;2023-03-05T04:40:43;11.97;;;4.37;;
2257;SDS011;1136;51.574;7.706;2023-03-05T04:43:10;9.53;;;4.40;;
2257;SDS011;1136;51.574;7.706;2023-03-05T04:45:40;5.07;;;3.50;;
2257;SDS011;1136;51.574;7.706;2023-03-05T04:48:08;6.03;;;4.00;;
2257;SDS011;1136;51.574;7.706;2023-03-05T04:50:36;6.80;;;3.70;;
2257;SDS011;1136;51.574;7.706;2023-03-05T04:53:03;7.00;;;4.27;;
2257;SDS011;1136;51.574;7.706;2023-03-05T04:55:30;8.20;;;4.00;;
2257;SDS011;1136;51.574;7.706;2023-03-05T04:57:57;8.17;;;3.77;;
2257;SDS011;1136;51.574;7.706;2023-03-05T05:00:24;6.70;;;3.57;;
2257;SDS011;1136;51.574;7.706;2023-03-05T05:02:50;5.83;;;4.07;;
2257;SDS011;1136;51.574;7.706;2023-03-05T05:05:19;9.30;;;3.77;;
2257;SDS011;1136;51.574;7.706;2023-03-05T05:07:47;9.00;;;3.20;;
2257;SDS011;1136;51.574;7.706;2023-03-05T05:10:14;9.30;;;3.93;;
2257;SDS011;1136;51.574;7.706;2023-03-05T05:12:41;10.80;;;3.70;;
2257;SDS011;1136;51.574;7.706;2023-03-05T05:15:08;11.07;;;3.70;;
2257;SDS011;1136;51.574;7.706;2023-03-05T05:17:37;6.37;;;3.87;;
2257;SDS011;1136;51.574;7.706;2023-03-05T05:20:04;12.17;;;4.50;;
2257;SDS011;1136;51.574;7.706;2023-03-05T05:22:36;9.20;;;5.33;;
2257;SDS011;1136;51.574;7.706;2023-03-05T05:25:03;13.20;;;5.57;;
2257;SDS011;1136;51.574;7.706;2023-03-05T05:27:30;9.20;;;4.97;;
2257;SDS011;1136;51.574;7.706;2023-03-05T05:29:57;9.73;;;5.27;;
2257;SDS011;1136;51.574;7.706;2023-03-05T05:32:24;8.23;;;5.60;;
2257;SDS011;1136;51.574;7.706;2023-03-05T05:34:54;10.00;;;5.00;;
2257;SDS011;1136;51.574;7.706;2023-03-05T05:37:24;11.43;;;5.60;;
2257;SDS011;1136;51.574;7.706;2023-03-05T05:39:51;15.93;;;5.77;;
2257;SDS011;1136;51.574;7.706;2023-03-05T05:42:22;8.27;;;5.50;;
2257;SDS011;1136;51.574;7.706;2023-03-05T05:44:49;11.53;;;5.63;;
2257;SDS011;1136;51.574;7.706;2023-03-05T05:47:16;9.50;;;5.83;;
2257;SDS011;1136;51.574;7.706;2023-03-05T05:49:43;13.40;;;5.97;;
2257;SDS011;1136;51.574;7.706;2023-03-05T05:52:10;10.50;;;6.73;;
2257;SDS011;1136;51.574;7.706;2023-03-05T05:54:37;11.07;;;6.70;;
2257;SDS011;1136;51.574;7.706;2023-03-05T05:57:04;13.70;;;8.83;;
2257;SDS011;1136;51.574;7.706;2023-03-05T05:59:30;11.13;;;8.00;;
2257;SDS011;1136;51.574;7.706;2023-03-05T06:01:57;15.50;;;7.57;;
2257;SDS011;1136;51.574;7.706;2023-03-05T06:04:24;15.97;;;8.90;;
2257;SDS011;1136;51.574;7.706;2023-03-05T06:06:51;18.20;;;9.50;;
2257;SDS011;1136;51.574;7.706;2023-03-05T06:09:18;12.80;;;8.70;;
2257;SDS011;1136;51.574;7.706;2023-03-05T06:11:45;20.37;;;9.67;;
2257;SDS011;1136;51.574;7.706;2023-03-05T06:14:11;20.30;;;10.47;;
2257;SDS011;1136;51.574;7.706;2023-03-05T06:16:38;14.67;;;10.00;;
2257;SDS011;1136;51.574;7.706;2023-03-05T06:19:05;12.57;;;9.43;;
2257;SDS011;1136;51.574;7.706;2023-03-05T06:21:34;20.07;;;10.27;;
2257;SDS011;1136;51.574;7.706;2023-03-05T06:24:01;16.27;;;10.50;;
2257;SDS011;1136;51.574;7.706;2023-03-05T06:26:28;16.30;;;10.67;;
2257;SDS011;1136;51.574;7.706;2023-03-05T06:28:55;19.43;;;9.93;;
2257;SDS011;1136;51.574;7.706;2023-03-05T06:31:23;16.40;;;10.10;;
2257;SDS011;1136;51.574;7.706;2023-03-05T06:33:51;15.60;;;9.60;;
2257;SDS011;1136;51.574;7.706;2023-03-05T06:36:21;14.77;;;10.20;;
2257;SDS011;1136;51.574;7.706;2023-03-05T06:38:49;14.87;;;9.03;;
2257;SDS011;1136;51.574;7.706;2023-03-05T06:41:19;15.27;;;9.97;;
2257;SDS011;1136;51.574;7.706;2023-03-05T06:43:48;17.00;;;9.40;;
2257;SDS011;1136;51.574;7.706;2023-03-05T06:46:19;15.77;;;10.33;;
2257;SDS011;1136;51.574;7.706;2023-03-05T06:48:47;14.50;;;9.60;;
2257;SDS011;1136;51.574;7.706;2023-03-05T06:51:22;15.00;;;9.00;;
2257;SDS011;1136;51.574;7.706;2023-03-05T06:53:51;15.77;;;10.30;;
2257;SDS011;1136;51.574;7.706;2023-03-05T06:56:18;21.00;;;10.53;;
2257;SDS011;1136;51.574;7.706;2023-03-05T06:58:49;14.17;;;9.70;;
2257;SDS011;1136;51.574;7.706;2023-03-05T07:01:16;14.50;;;10.80;;
2257;SDS011;1136;51.574;7.706;2023-03-05T07:03:47;20.83;;;11.20;;
2257;SDS011;1136;51.574;7.706;2023-03-05T07:06:14;18.43;;;10.87;;
2257;SDS011;1136;51.574;7.706;2023-03-05T07:08:41;14.93;;;10.07;;
2257;SDS011;1136;51.574;7.706;2023-03-05T07:11:11;16.20;;;10.03;;
2257;SDS011;1136;51.574;7.706;2023-03-05T07:13:38;21.27;;;9.80;;
2257;SDS011;1136;51.574;7.706;2023-03-05T07:16:07;15.97;;;9.10;;
2257;SDS011;1136;51.574;7.706;2023-03-05T07:18:35;15.20;;;10.23;;
2257;SDS011;1136;51.574;7.706;2023-03-05T07:21:05;15.03;;;10.30;;
2257;SDS011;1136;51.574;7.706;2023-03-05T07:23:33;12.70;;;8.70;;
2257;SDS011;1136;51.574;7.706;2023-03-05T07:26:00;12.30;;;8.70;;
2257;SDS011;1136;51.574;7.706;2023-03-05T07:28:27;14.20;;;7.70;;
2257;SDS011;1136;51.574;7.706;2023-03-05T07:30:58;11.50;;;7.10;;
2257;SDS011;1136;51.574;7.706;2023-03-05T07:33:26;14.17;;;7.57;;
2257;SDS011;1136;51.574;7.706;2023-03-05T07:35:53;9.77;;;6.80;;
2257;SDS011;1136;51.574;7.706;2023-03-05T07:38:20;9.33;;;7.37;;
2257;SDS011;1136;51.574;7.706;2023-03-05T07:40:49;10.73;;;6.10;;
2257;SDS011;1136;51.574;7.706;2023-03-05T07:43:16;12.50;;;6.90;;
2257;SDS011;1136;51.574;7.706;2023-03-05T07:45:43;10.00;;;6.70;;
2257;SDS011;1136;51.574;7.706;2023-03-05T07:48:14;9.20;;;6.90;;
2257;SDS011;1136;51.574;7.706;2023-03-05T07:50:43;11.13;;;6.60;;
2257;SDS011;1136;51.574;7.706;2023-03-05T07:53:09;10.87;;;7.80;;
2257;SDS011;1136;51.574;7.706;2023-03-05T07:55:43;13.77;;;8.23;;
2257;SDS011;1136;51.574;7.706;2023-03-05T07:58:12;15.03;;;8.90;;
2257;SDS011;1136;51.574;7.706;2023-03-05T08:00:39;16.47;;;9.33;;
2257;SDS011;1136;51.574;7.706;2023-03-05T08:03:06;13.03;;;9.17;;
2257;SDS011;1136;51.574;7.706;2023-03-05T08:05:33;19.03;;;10.03;;
2257;SDS011;1136;51.574;7.706;2023-03-05T08:07:59;12.70;;;9.03;;
2257;SDS011;1136;51.574;7.706;2023-03-05T08:10:26;11.60;;;9.40;;
2257;SDS011;1136;51.574;7.706;2023-03-05T08:12:53;14.00;;;9.93;;
2257;SDS011;1136;51.574;7.706;2023-03-05T08:15:19;16.07;;;9.83;;
2257;SDS011;1136;51.574;7.706;2023-03-05T08:17:46;14.43;;;9.80;;
2257;SDS011;1136;51.574;7.706;2023-03-05T08:20:12;17.37;;;10.47;;
2257;SDS011;1136;51.574;7.706;2023-03-05T08:22:39;17.70;;;10.30;;
2257;SDS011;1136;51.574;7.706;2023-03-05T08:25:06;18.30;;;10.27;;
2257;SDS011;1136;51.574;7.706;2023-03-05T08:27:34;17.30;;;10.73;;
2257;SDS011;1136;51.574;7.706;2023-03-05T08:30:04;21.33;;;10.83;;
2257;SDS011;1136;51.574;7.706;2023-03-05T08:32:31;16.37;;;10.20;;
2257;SDS011;1136;51.574;7.706;2023-03-05T08:34:57;18.83;;;9.50;;
2257;SDS011;1136;51.574;7.706;2023-03-05T08:37:24;17.83;;;11.10;;
2257;SDS011;1136;51.574;7.706;2023-03-05T08:39:51;11.93;;;9.80;;
2257;SDS011;1136;51.574;7.706;2023-03-05T08:42:18;15.30;;;10.80;;
2257;SDS011;1136;51.574;7.706;2023-03-05T08:44:44;19.03;;;12.10;;
2257;SDS011;1136;51.574;7.706;2023-03-05T08:47:11;17.37;;;11.37;;
2257;SDS011;1136;51.574;7.706;2023-03-05T08:49:38;20.23;;;11.40;;
2257;SDS011;1136;51.574;7.706;2023-03-05T08:52:04;15.93;;;11.83;;
2257;SDS011;1136;51.574;7.706;2023-03-05T08:54:32;14.83;;;11.23;;
2257;SDS011;1136;51.574;7.706;2023-03-05T08:56:59;15.83;;;12.40;;
2257;SDS011;1136;51.574;7.706;2023-03-05T08:59:25;25.13;;;12.90;;
2257;SDS011;1136;51.574;7.706;2023-03-05T09:01:52;22.67;;;13.43;;
2257;SDS011;1136;51.574;7.706;2023-03-05T09:04:19;17.83;;;11.80;;
2257;SDS011;1136;51.574;7.706;2023-03-05T09:06:45;16.77;;;10.50;;
2257;SDS011;1136;51.574;7.706;2023-03-05T09:09:12;15.07;;;13.00;;
2257;SDS011;1136;51.574;7.706;2023-03-05T09:11:39;19.07;;;13.43;;
2257;SDS011;1136;51.574;7.706;2023-03-05T09:14:07;20.90;;;14.87;;
2257;SDS011;1136;51.574;7.706;2023-03-05T09:16:33;20.67;;;12.40;;
2257;SDS011;1136;51.574;7.706;2023-03-05T09:19:01;22.00;;;13.63;;
2257;SDS011;1136;51.574;7.706;2023-03-05T09:21:28;20.20;;;12.30;;
2257;SDS011;1136;51.574;7.706;2023-03-05T09:23:54;15.90;;;9.50;;
2257;SDS011;1136;51.574;7.706;2023-03-05T09:26:25;15.33;;;9.77;;
2257;SDS011;1136;51.574;7.706;2023-03-05T09:28:51;10.53;;;8.40;;
2257;SDS011;1136;51.574;7.706;2023-03-05T09:31:18;10.53;;;7.90;;
2257;SDS011;1136;51.574;7.706;2023-03-05T09:33:46;14.73;;;9.17;;
2257;SDS011;1136;51.574;7.706;2023-03-05T09:36:23;11.17;;;8.70;;
2257;SDS011;1136;51.574;7.706;2023-03-05T09:38:51;12.60;;;8.57;;
2257;SDS011;1136;51.574;7.706;2023-03-05T09:43:52;7.50;;;5.23;;
2257;SDS011;1136;51.574;7.706;2023-03-05T09:49:11;11.33;;;6.03;;
2257;SDS011;1136;51.574;7.706;2023-03-05T09:51:42;8.43;;;6.80;;
2257;SDS011;1136;51.574;7.706;2023-03-05T09:54:19;9.80;;;5.80;;
2257;SDS011;1136;51.574;7.706;2023-03-05T09:56:50;6.73;;;5.43;;
2257;SDS011;1136;51.574;7.706;2023-03-05T09:59:30;4.20;;;3.73;;
2257;SDS011;1136;51.574;7.706;2023-03-05T10:01:58;6.70;;;5.10;;
2257;SDS011;1136;51.574;7.706;2023-03-05T10:07:13;6.90;;;3.70;;
2257;SDS011;1136;51.574;7.706;2023-03-05T10:10:00;3.90;;;3.17;;
2257;SDS011;1136;51.574;7.706;2023-03-05T10:12:42;4.80;;;3.10;;
2257;SDS011;1136;51.574;7.706;2023-03-05T10:18:29;3.87;;;2.90;;
2257;SDS011;1136;51.574;7.706;2023-03-05T10:21:41;3.23;;;2.93;;
2257;SDS011;1136;51.574;7.706;2023-03-05T10:27:16;3.17;;;2.67;;
2257;SDS011;1136;51.574;7.706;2023-03-05T10:32:26;2.87;;;2.57;;
2257;SDS011;1136;51.574;7.706;2023-03-05T10:40:53;2.53;;;2.10;;
2257;SDS011;1136;51.574;7.706;2023-03-05T10:46:08;2.70;;;2.60;;
2257;SDS011;1136;51.574;7.706;2023-03-05T10:48:40;5.20;;;2.87;;
2257;SDS011;1136;51.574;7.706;2023-03-05T10:51:11;3.43;;;3.20;;
2257;SDS011;1136;51.574;7.706;2023-03-05T10:56:24;4.47;;;3.90;;
2257;SDS011;1136;51.574;7.706;2023-03-05T10:58:52;5.80;;;4.77;;
2257;SDS011;1136;51.574;7.706;2023-03-05T11:01:21;4.90;;;4.60;;
2257;SDS011;1136;51.574;7.706;2023-03-05T11:06:33;5.20;;;4.77;;
2257;SDS011;1136;51.574;7.706;2023-03-05T11:11:44;6.63;;;6.13;;
2257;SDS011;1136;51.574;7.706;2023-03-05T11:14:30;6.33;;;4.50;;
2257;SDS011;1136;51.574;7.706;2023-03-05T11:17:02;3.93;;;3.63;;
2257;SDS011;1136;51.574;7.706;2023-03-05T11:19:47;3.37;;;3.03;;
2257;SDS011;1136;51.574;7.706;2023-03-05T11:25:12;3.93;;;3.40;;
2257;SDS011;1136;51.574;7.706;2023-03-05T11:27:49;5.00;;;3.73;;
2257;SDS011;1136;51.574;7.706;2023-03-05T11:33:16;5.40;;;4.07;;
2257;SDS011;1136;51.574;7.706;2023-03-05T11:35:46;2.37;;;2.17;;
2257;SDS011;1136;51.574;7.706;2023-03-05T11:38:15;2.13;;;1.93;;
2257;SDS011;1136;51.574;7.706;2023-03-05T11:40:54;1.93;;;1.83;;
2257;SDS011;1136;51.574;7.706;2023-03-05T11:43:23;2.57;;;2.47;;
2257;SDS011;1136;51.574;7.706;2023-03-05T11:45:54;3.40;;;3.10;;
2257;SDS011;1136;51.574;7.706;2023-03-05T11:48:25;4.43;;;3.70;;
2257;SDS011;1136;51.574;7.706;2023-03-05T11:50:55;7.07;;;6.40;;
2257;SDS011;1136;51.574;7.706;2023-03-05T11:53:30;6.40;;;5.80;;
2257;SDS011;1136;51.574;7.706;2023-03-05T11:56:02;6.07;;;5.57;;
2257;SDS011;1136;51.574;7.706;2023-03-05T12:01:51;3.90;;;3.60;;
2257;SDS011;1136;51.574;7.706;2023-03-05T12:04:19;2.83;;;2.63;;
2257;SDS011;1136;51.574;7.706;2023-03-05T12:06:48;3.80;;;3.40;;
2257;SDS011;1136;51.574;7.706;2023-03-05T12:21:05;2.37;;;2.17;;
2257;SDS011;1136;51.574;7.706;2023-03-05T12:23:48;2.50;;;2.30;;
2257;SDS011;1136;51.574;7.706;2023-03-05T12:26:17;2.60;;;2.23;;
2257;SDS011;1136;51.574;7.706;2023-03-05T12:37:12;1.77;;;1.67;;
2257;SDS011;1136;51.574;7.706;2023-03-05T12:47:35;2.93;;;1.83;;
2257;SDS011;1136;51.574;7.706;2023-03-05T12:50:45;1.77;;;1.60;;
2257;SDS011;1136;51.574;7.706;2023-03-05T12:53:11;1.93;;;1.40;;
2257;SDS011;1136;51.574;7.706;2023-03-05T12:58:27;2.60;;;2.20;;
2257;SDS011;1136;51.574;7.706;2023-03-05T13:04:00;2.90;;;1.40;;
2257;SDS011;1136;51.574;7.706;2023-03-05T13:06:36;1.70;;;1.60;;
2257;SDS011;1136;51.574;7.706;2023-03-05T13:09:07;1.77;;;1.50;;
2257;SDS011;1136;51.574;7.706;2023-03-05T13:11:45;3.40;;;1.80;;
2257;SDS011;1136;51.574;7.706;2023-03-05T13:16:52;1.90;;;1.70;;
2257;SDS011;1136;51.574;7.706;2023-03-05T13:19:20;3.97;;;2.27;;
2257;SDS011;1136;51.574;7.706;2023-03-05T13:21:58;4.40;;;2.50;;
2257;SDS011;1136;51.574;7.706;2023-03-05T13:24:30;3.93;;;2.10;;
2257;SDS011;1136;51.574;7.706;2023-03-05T13:26:57;6.17;;;2.03;;
2257;SDS011;1136;51.574;7.706;2023-03-05T13:29:24;3.10;;;2.83;;
2257;SDS011;1136;51.574;7.706;2023-03-05T13:36:49;2.77;;;1.33;;
2257;SDS011;1136;51.574;7.706;2023-03-05T13:39:20;1.50;;;1.40;;
2257;SDS011;1136;51.574;7.706;2023-03-05T13:42:03;3.63;;;2.50;;
2257;SDS011;1136;51.574;7.706;2023-03-05T13:44:55;2.90;;;2.10;;
2257;SDS011;1136;51.574;7.706;2023-03-05T13:47:27;3.50;;;2.20;;
2257;SDS011;1136;51.574;7.706;2023-03-05T13:49:59;4.27;;;2.67;;
2257;SDS011;1136;51.574;7.706;2023-03-05T13:52:27;3.47;;;2.77;;
2257;SDS011;1136;51.574;7.706;2023-03-05T13:54:56;2.13;;;1.93;;
2257;SDS011;1136;51.574;7.706;2023-03-05T14:00:02;3.63;;;2.30;;
2257;SDS011;1136;51.574;7.706;2023-03-05T14:02:31;4.53;;;2.33;;
2257;SDS011;1136;51.574;7.706;2023-03-05T14:04:58;3.20;;;2.30;;
2257;SDS011;1136;51.574;7.706;2023-03-05T14:09:59;2.50;;;2.30;;
2257;SDS011;1136;51.574;7.706;2023-03-05T14:12:36;3.83;;;2.37;;
2257;SDS011;1136;51.574;7.706;2023-03-05T14:15:19;2.60;;;2.40;;
2257;SDS011;1136;51.574;7.706;2023-03-05T14:17:47;2.63;;;2.43;;
2257;SDS011;1136;51.574;7.706;2023-03-05T14:22:58;5.83;;;3.00;;
2257;SDS011;1136;51.574;7.706;2023-03-05T14:28:00;4.53;;;2.70;;
2257;SDS011;1136;51.574;7.706;2023-03-05T14:30:28;2.50;;;2.30;;
2257;SDS011;1136;51.574;7.706;2023-03-05T14:32:56;3.47;;;2.80;;
2257;SDS011;1136;51.574;7.706;2023-03-05T14:35:26;4.37;;;2.60;;
2257;SDS011;1136;51.574;7.706;2023-03-05T14:37:54;6.03;;;3.07;;
2257;SDS011;1136;51.574;7.706;2023-03-05T14:40:33;2.30;;;2.10;;
2257;SDS011;1136;51.574;7.706;2023-03-05T14:43:01;2.70;;;2.30;;
2257;SDS011;1136;51.574;7.706;2023-03-05T14:45:32;4.40;;;2.47;;
2257;SDS011;1136;51.574;7.706;2023-03-05T14:48:01;3.30;;;2.63;;
2257;SDS011;1136;51.574;7.706;2023-03-05T14:50:31;4.83;;;3.10;;
2257;SDS011;1136;51.574;7.706;2023-03-05T14:53:01;3.10;;;2.80;;
2257;SDS011;1136;51.574;7.706;2023-03-05T14:55:31;2.57;;;2.37;;
2257;SDS011;1136;51.574;7.706;2023-03-05T14:58:02;2.80;;;2.60;;
2257;SDS011;1136;51.574;7.706;2023-03-05T15:00:51;5.57;;;3.00;;
2257;SDS011;1136;51.574;7.706;2023-03-05T15:03:19;3.13;;;2.93;;
2257;SDS011;1136;51.574;7.706;2023-03-05T15:05:46;3.10;;;2.80;;
2257;SDS011;1136;51.574;7.706;2023-03-05T15:08:19;3.17;;;2.87;;
2257;SDS011;1136;51.574;7.706;2023-03-05T15:10:48;4.20;;;2.90;;
2257;SDS011;1136;51.574;7.706;2023-03-05T15:13:15;3.10;;;2.87;;
2257;SDS011;1136;51.574;7.706;2023-03-05T15:15:42;3.07;;;2.67;;
2257;SDS011;1136;51.574;7.706;2023-03-05T15:18:11;4.60;;;2.97;;
2257;SDS011;1136;51.574;7.706;2023-03-05T15:20:38;4.07;;;3.67;;
2257;SDS011;1136;51.574;7.706;2023-03-05T15:23:05;5.13;;;3.30;;
2257;SDS011;1136;51.574;7.706;2023-03-05T15:25:32;6.20;;;3.33;;
2257;SDS011;1136;51.574;7.706;2023-03-05T15:27:59;5.20;;;3.80;;
2257;SDS011;1136;51.574;7.706;2023-03-05T15:30:33;3.67;;;3.33;;
2257;SDS011;1136;51.574;7.706;2023-03-05T15:33:09;5.73;;;4.03;;
2257;SDS011;1136;51.574;7.706;2023-03-05T15:35:37;6.43;;;4.63;;
2257;SDS011;1136;51.574;7.706;2023-03-05T15:38:04;5.90;;;4.77;;
2257;SDS011;1136;51.574;7.706;2023-03-05T15:40:31;3.90;;;3.60;;
2257;SDS011;1136;51.574;7.706;2023-03-05T15:42:58;3.30;;;3.00;;
2257;SDS011;1136;51.574;7.706;2023-03-05T15:45:25;4.33;;;3.50;;
2257;SDS011;1136;51.574;7.706;2023-03-05T15:47:52;6.20;;;3.33;;
2257;SDS011;1136;51.574;7.706;2023-03-05T15:50:20;4.43;;;3.23;;
2257;SDS011;1136;51.574;7.706;2023-03-05T15:52:47;3.63;;;3.33;;
2257;SDS011;1136;51.574;7.706;2023-03-05T15:55:14;4.07;;;2.93;;
2257;SDS011;1136;51.574;7.706;2023-03-05T15:57:42;5.00;;;3.10;;
2257;SDS011;1136;51.574;7.706;2023-03-05T16:00:10;5.07;;;3.53;;
2257;SDS011;1136;51.574;7.706;2023-03-05T16:02:38;4.30;;;4.00;;
2257;SDS011;1136;51.574;7.706;2023-03-05T16:05:04;4.63;;;3.83;;
2257;SDS011;1136;51.574;7.706;2023-03-05T16:07:33;3.60;;;3.27;;
2257;SDS011;1136;51.574;7.706;2023-03-05T16:10:02;8.00;;;3.70;;
2257;SDS011;1136;51.574;7.706;2023-03-05T16:12:30;6.00;;;3.40;;
2257;SDS011;1136;51.574;7.706;2023-03-05T16:15:02;3.67;;;3.37;;
2257;SDS011;1136;51.574;7.706;2023-03-05T16:17:29;3.70;;;3.30;;
2257;SDS011;1136;51.574;7.706;2023-03-05T16:19:56;3.20;;;2.90;;
2257;SDS011;1136;51.574;7.706;2023-03-05T16:22:22;3.20;;;2.90;;
2257;SDS011;1136;51.574;7.706;2023-03-05T16:24:49;3.83;;;3.53;;
2257;SDS011;1136;51.574;7.706;2023-03-05T16:27:16;6.43;;;3.30;;
2257;SDS011;1136;51.574;7.706;2023-03-05T16:29:42;4.37;;;3.27;;
2257;SDS011;1136;51.574;7.706;2023-03-05T16:32:09;4.10;;;3.70;;
2257;SDS011;1136;51.574;7.706;2023-03-05T16:34:36;3.97;;;3.67;;
2257;SDS011;1136;51.574;7.706;2023-03-05T16:37:03;3.90;;;3.60;;
2257;SDS011;1136;51.574;7.706;2023-03-05T16:39:32;4.57;;;4.17;;
2257;SDS011;1136;51.574;7.706;2023-03-05T16:41:58;5.20;;;4.20;;
2257;SDS011;1136;51.574;7.706;2023-03-05T16:44:25;4.70;;;4.30;;
2257;SDS011;1136;51.574;7.706;2023-03-05T16:46:51;5.37;;;4.80;;
2257;SDS011;1136;51.574;7.706;2023-03-05T16:49:19;6.33;;;5.60;;
2257;SDS011;1136;51.574;7.706;2023-03-05T16:51:46;8.07;;;7.27;;
2257;SDS011;1136;51.574;7.706;2023-03-05T16:54:12;6.20;;;5.60;;
2257;SDS011;1136;51.574;7.706;2023-03-05T16:56:39;6.00;;;5.50;;
2257;SDS011;1136;51.574;7.706;2023-03-05T16:59:06;8.30;;;5.57;;